Time;durP1;ratioP1;P1;durP2;ratioP2;P2;SDS_P1;SDS_P2;PMS_P1;PMS_P2;Temp;Humidity;BMP_temperature;BMP_pressure;BME280_temperature;BME280_humidity;BME280_pressure;Samples;Min_cycle;Max_cycle;Signal;HPM_P1;HPM_P2
2020/12/22 00:01:34;;;;;;;2.03;1.80;;;10.10;99.90;;;;;;5009143;28;20500;-70
2020/12/22 00:04:01;;;;;;;3.53;1.85;;;10.10;99.90;;;;;;5006533;28;20045;-68
2020/12/22 00:06:28;;;;;;;2.95;1.98;;;10.20;99.90;;;;;;5000882;28;20139;-68
2020/12/22 00:08:54;;;;;;;2.47;1.95;;;10.20;99.90;;;;;;5009178;28;20046;-69
2020/12/22 00:11:21;;;;;;;3.47;2.00;;;10.10;99.90;;;;;;5008018;28;20612;-69
2020/12/22 00:13:47;;;;;;;2.80;2.08;;;10.10;99.90;;;;;;4988523;28;20456;-69
2020/12/22 00:16:13;;;;;;;4.35;2.65;;;10.20;99.90;;;;;;5008095;28;20165;-70
2020/12/22 00:18:41;;;;;;;2.90;2.28;;;10.20;99.90;;;;;;5004685;28;20152;-68
2020/12/22 00:21:07;;;;;;;3.25;2.50;;;10.20;99.90;;;;;;5004201;28;20417;-68
2020/12/22 00:23:33;;;;;;;3.80;2.72;;;10.20;99.90;;;;;;5003831;28;20074;-68
2020/12/22 00:26:00;;;;;;;3.30;2.45;;;10.30;99.90;;;;;;5007502;28;20100;-68
2020/12/22 00:28:26;;;;;;;4.13;2.25;;;10.30;99.90;;;;;;5007069;28;20056;-68
2020/12/22 00:30:52;;;;;;;3.40;2.45;;;10.30;99.90;;;;;;5007058;28;20053;-69
2020/12/22 00:33:18;;;;;;;2.90;2.35;;;10.30;99.90;;;;;;5007476;28;20049;-69
2020/12/22 00:35:45;;;;;;;3.90;2.30;;;10.30;99.90;;;;;;5003283;28;20481;-69
2020/12/22 00:38:11;;;;;;;4.35;2.20;;;10.40;99.90;;;;;;5007337;28;20045;-68
2020/12/22 00:40:37;;;;;;;3.92;2.22;;;10.40;99.90;;;;;;5005862;28;20524;-68
2020/12/22 00:43:05;;;;;;;2.83;2.20;;;10.40;99.90;;;;;;5008794;28;20049;-68
2020/12/22 00:45:32;;;;;;;6.40;2.38;;;10.40;99.90;;;;;;5006072;28;20053;-68
2020/12/22 00:47:58;;;;;;;3.70;2.50;;;10.40;99.90;;;;;;5007486;28;20064;-68
2020/12/22 00:50:25;;;;;;;2.90;2.50;;;10.40;99.90;;;;;;5009619;28;20058;-68
2020/12/22 00:52:51;;;;;;;2.88;1.90;;;10.40;99.90;;;;;;5004512;28;20054;-67
2020/12/22 00:55:18;;;;;;;3.65;2.22;;;10.40;99.90;;;;;;5005044;28;20485;-70
2020/12/22 00:57:44;;;;;;;3.60;2.42;;;10.40;99.90;;;;;;5009265;28;20081;-70
2020/12/22 01:00:12;;;;;;;3.85;2.30;;;10.40;99.90;;;;;;4987542;28;20046;-68
2020/12/22 01:02:39;;;;;;;4.10;2.20;;;10.40;99.90;;;;;;5008842;28;20096;-68
2020/12/22 01:05:06;;;;;;;3.10;2.05;;;10.50;99.90;;;;;;4999946;28;20046;-69
2020/12/22 01:07:33;;;;;;;3.85;1.98;;;10.50;99.90;;;;;;5009170;28;20436;-68
2020/12/22 01:09:59;;;;;;;2.35;1.83;;;10.50;99.90;;;;;;5006177;28;20057;-67
2020/12/22 01:12:26;;;;;;;2.70;1.80;;;10.50;99.90;;;;;;4990667;28;20147;-68
2020/12/22 01:14:52;;;;;;;2.78;2.00;;;10.50;99.90;;;;;;5009010;28;20527;-68
2020/12/22 01:17:20;;;;;;;2.47;1.60;;;10.50;99.90;;;;;;5008036;28;20042;-68
2020/12/22 01:19:46;;;;;;;2.70;1.75;;;10.50;99.90;;;;;;5008974;28;20034;-69
2020/12/22 01:22:13;;;;;;;2.97;1.77;;;10.50;99.90;;;;;;4995894;28;20552;-69
2020/12/22 01:24:39;;;;;;;2.47;1.90;;;10.60;99.90;;;;;;5008590;28;20046;-69
2020/12/22 01:27:05;;;;;;;3.72;1.63;;;10.60;99.90;;;;;;5006288;28;20071;-69
2020/12/22 01:29:32;;;;;;;1.67;1.40;;;10.70;99.90;;;;;;5005597;28;20053;-68
2020/12/22 01:31:58;;;;;;;6.10;1.85;;;10.70;99.90;;;;;;5005719;28;20045;-69
2020/12/22 01:34:24;;;;;;;2.72;1.63;;;10.70;99.90;;;;;;5007039;28;20405;-68
2020/12/22 01:36:50;;;;;;;2.33;1.40;;;10.80;99.90;;;;;;5005929;28;20054;-69
2020/12/22 01:39:18;;;;;;;2.90;1.70;;;10.80;99.90;;;;;;4989701;28;20050;-69
2020/12/22 01:41:44;;;;;;;3.60;1.80;;;10.80;99.90;;;;;;5008539;28;20053;-69
2020/12/22 01:44:14;;;;;;;2.35;1.40;;;10.90;99.90;;;;;;5006777;28;20042;-68
2020/12/22 01:46:42;;;;;;;4.82;1.40;;;10.90;99.90;;;;;;5008087;28;20065;-68
2020/12/22 01:49:28;;;;;;;3.17;1.58;;;11.00;99.90;;;;;;5007805;28;20424;-68
2020/12/22 01:51:56;;;;;;;2.38;1.65;;;10.90;99.90;;;;;;5005225;28;20154;-68
2020/12/22 01:54:25;;;;;;;3.50;1.35;;;10.90;99.90;;;;;;4998493;28;20077;-68
2020/12/22 01:56:51;;;;;;;3.40;1.38;;;11.00;99.90;;;;;;5010961;28;20078;-68
2020/12/22 01:59:19;;;;;;;2.55;1.48;;;11.00;99.90;;;;;;4991289;28;20129;-68
2020/12/22 02:01:47;;;;;;;1.40;1.23;;;11.00;99.90;;;;;;5005722;28;20456;-69
2020/12/22 02:04:14;;;;;;;2.70;1.48;;;11.00;99.90;;;;;;5008413;28;20045;-69
2020/12/22 02:06:40;;;;;;;3.70;1.35;;;11.00;99.90;;;;;;5009265;28;20050;-70
2020/12/22 02:09:08;;;;;;;2.95;1.65;;;11.00;99.90;;;;;;4995112;28;20097;-68
2020/12/22 02:11:37;;;;;;;2.80;1.80;;;11.00;99.90;;;;;;5004540;28;20073;-69
2020/12/22 02:14:08;;;;;;;2.08;1.48;;;11.00;99.90;;;;;;5004789;28;20139;-70
2020/12/22 02:16:36;;;;;;;3.72;1.70;;;11.00;99.90;;;;;;5004610;28;20456;-70
2020/12/22 02:19:19;;;;;;;2.05;1.45;;;11.00;99.90;;;;;;5001797;28;20500;-68
2020/12/22 02:21:45;;;;;;;2.00;1.50;;;11.00;99.90;;;;;;4999033;28;20046;-69
2020/12/22 02:24:12;;;;;;;2.30;1.80;;;11.00;99.90;;;;;;5008564;28;20062;-69
2020/12/22 02:26:42;;;;;;;2.88;1.38;;;11.00;99.90;;;;;;5002579;28;20495;-69
2020/12/22 02:29:08;;;;;;;4.28;1.45;;;11.00;99.90;;;;;;5000187;28;20101;-69
2020/12/22 02:31:34;;;;;;;2.13;1.55;;;11.00;99.90;;;;;;5005572;28;20050;-69
2020/12/22 02:34:00;;;;;;;2.60;1.42;;;11.10;99.90;;;;;;4997749;28;20046;-68
2020/12/22 02:36:27;;;;;;;1.95;1.30;;;11.10;99.90;;;;;;5007802;28;20062;-70
2020/12/22 02:38:53;;;;;;;2.22;1.50;;;11.20;99.90;;;;;;5000714;28;20054;-69
2020/12/22 02:41:20;;;;;;;1.77;1.25;;;11.20;99.90;;;;;;5010635;28;20473;-69
2020/12/22 02:43:46;;;;;;;1.73;1.48;;;11.20;99.90;;;;;;5007650;28;20050;-69
2020/12/22 02:46:12;;;;;;;1.83;1.10;;;11.20;99.90;;;;;;5010659;28;20414;-67
2020/12/22 02:48:39;;;;;;;1.63;1.20;;;11.20;99.90;;;;;;5010930;28;20499;-69
2020/12/22 02:51:05;;;;;;;5.38;1.20;;;11.20;99.90;;;;;;5007311;28;20100;-68
2020/12/22 02:53:31;;;;;;;3.13;1.23;;;11.20;99.90;;;;;;5005961;28;20246;-69
2020/12/22 02:55:58;;;;;;;1.35;1.20;;;11.20;99.90;;;;;;5009448;28;20053;-69
2020/12/22 02:58:24;;;;;;;1.77;1.40;;;11.20;99.90;;;;;;5009056;28;20058;-69
2020/12/22 03:00:50;;;;;;;1.10;0.85;;;11.20;99.90;;;;;;5008884;28;20057;-68
2020/12/22 03:03:17;;;;;;;2.60;0.90;;;11.30;99.90;;;;;;5000242;28;20184;-69
2020/12/22 03:05:44;;;;;;;2.50;1.00;;;11.30;99.90;;;;;;5012084;28;20046;-69
2020/12/22 03:08:11;;;;;;;2.53;0.95;;;11.30;99.90;;;;;;5009195;28;20045;-69
2020/12/22 03:10:38;;;;;;;2.20;0.70;;;11.30;99.90;;;;;;5010375;28;20088;-69
2020/12/22 03:13:05;;;;;;;1.98;0.98;;;11.40;99.90;;;;;;5007155;28;20132;-69
2020/12/22 03:15:31;;;;;;;2.13;1.08;;;11.40;99.90;;;;;;5007747;28;20100;-69
2020/12/22 03:17:58;;;;;;;1.50;0.80;;;11.40;99.90;;;;;;5010594;28;20143;-68
2020/12/22 03:20:24;;;;;;;1.80;0.90;;;11.40;99.90;;;;;;5012380;28;20128;-68
2020/12/22 03:22:51;;;;;;;3.30;0.70;;;11.50;99.90;;;;;;5005109;28;20081;-69
2020/12/22 03:25:18;;;;;;;1.77;0.80;;;11.50;99.90;;;;;;5012417;28;20516;-68
2020/12/22 03:27:44;;;;;;;0.90;0.68;;;11.50;99.90;;;;;;5009370;28;20045;-68
2020/12/22 03:30:13;;;;;;;0.70;0.70;;;11.50;99.90;;;;;;5003256;28;20048;-67
2020/12/22 03:32:40;;;;;;;1.02;0.80;;;11.50;99.90;;;;;;5011007;28;20449;-69
2020/12/22 03:35:08;;;;;;;3.63;0.68;;;11.50;99.90;;;;;;5008361;28;20084;-69
2020/12/22 03:37:36;;;;;;;1.10;0.82;;;11.50;99.90;;;;;;5010262;28;20058;-68
2020/12/22 03:40:07;;;;;;;0.88;0.70;;;11.50;99.90;;;;;;5009669;28;20088;-69
2020/12/22 03:42:34;;;;;;;1.30;0.70;;;11.50;99.90;;;;;;5008734;28;20084;-69
2020/12/22 03:45:00;;;;;;;1.95;0.70;;;11.60;99.90;;;;;;5012146;28;20100;-67
2020/12/22 03:47:28;;;;;;;1.15;0.80;;;11.60;99.90;;;;;;4994465;28;20077;-69
2020/12/22 03:49:54;;;;;;;0.82;0.70;;;11.60;99.90;;;;;;5010754;28;20525;-67
2020/12/22 03:52:20;;;;;;;1.23;0.70;;;11.60;99.90;;;;;;5010465;28;20444;-69
2020/12/22 03:54:47;;;;;;;2.30;0.90;;;11.60;99.90;;;;;;5007564;28;20135;-68
2020/12/22 03:57:15;;;;;;;2.00;0.70;;;11.60;99.90;;;;;;5011379;28;20474;-69
2020/12/22 03:59:43;;;;;;;2.40;0.75;;;11.60;99.90;;;;;;5010072;28;20470;-68
2020/12/22 04:02:10;;;;;;;1.67;0.63;;;11.60;99.90;;;;;;5003244;28;20104;-68
2020/12/22 04:04:36;;;;;;;1.63;0.70;;;11.60;99.90;;;;;;5011654;28;20446;-67
2020/12/22 04:07:03;;;;;;;1.60;0.80;;;11.60;99.90;;;;;;4993978;28;20065;-69
2020/12/22 04:09:29;;;;;;;1.58;0.70;;;11.70;99.90;;;;;;5009793;28;20177;-69
2020/12/22 04:11:56;;;;;;;1.35;0.65;;;11.70;99.90;;;;;;5007893;28;20054;-68
2020/12/22 04:14:23;;;;;;;0.52;0.50;;;11.70;99.90;;;;;;5004868;28;20078;-69
2020/12/22 04:16:49;;;;;;;0.95;0.60;;;11.70;99.90;;;;;;5012226;28;20481;-69
2020/12/22 04:19:16;;;;;;;0.50;0.50;;;11.70;99.90;;;;;;5006639;28;20385;-69
2020/12/22 04:21:42;;;;;;;0.93;0.65;;;11.70;99.90;;;;;;5009211;28;20405;-67
2020/12/22 04:24:09;;;;;;;1.85;0.60;;;11.70;99.90;;;;;;5009893;28;21913;-68
2020/12/22 04:26:35;;;;;;;0.50;0.50;;;11.80;99.90;;;;;;4994566;28;20042;-68
2020/12/22 04:29:02;;;;;;;0.82;0.70;;;11.80;99.90;;;;;;5005380;28;20047;-68
2020/12/22 04:31:30;;;;;;;1.27;0.70;;;11.80;99.90;;;;;;5004393;28;20053;-68
2020/12/22 04:33:57;;;;;;;2.30;0.70;;;11.80;99.90;;;;;;5011445;28;20501;-68
2020/12/22 04:36:24;;;;;;;1.95;0.65;;;11.80;99.90;;;;;;5009854;28;20042;-68
2020/12/22 04:38:52;;;;;;;1.10;0.70;;;11.80;99.90;;;;;;5006569;28;20870;-68
2020/12/22 04:41:19;;;;;;;0.60;0.55;;;11.80;99.90;;;;;;4995664;28;20482;-68
2020/12/22 04:43:47;;;;;;;1.75;0.60;;;11.90;99.90;;;;;;5008125;28;20042;-67
2020/12/22 04:46:19;;;;;;;1.40;0.63;;;11.80;99.90;;;;;;5006661;28;20057;-68
2020/12/22 04:48:51;;;;;;;2.33;0.90;;;11.80;99.90;;;;;;5010532;28;20054;-70
2020/12/22 04:51:18;;;;;;;1.05;0.70;;;11.80;99.90;;;;;;5007996;28;20058;-69
2020/12/22 04:54:05;;;;;;;1.80;0.88;;;11.80;99.90;;;;;;5009642;28;20505;-68
2020/12/22 04:56:31;;;;;;;0.82;0.60;;;11.80;99.90;;;;;;5009060;28;20052;-67
2020/12/22 04:58:57;;;;;;;0.70;0.70;;;11.80;99.90;;;;;;5008562;28;20469;-69
2020/12/22 05:01:24;;;;;;;0.82;0.60;;;11.80;99.90;;;;;;5009984;28;20042;-68
2020/12/22 05:03:51;;;;;;;3.13;0.73;;;11.80;99.90;;;;;;5009619;28;20524;-68
2020/12/22 05:06:17;;;;;;;0.57;0.50;;;11.80;99.90;;;;;;5010860;28;20688;-69
2020/12/22 05:08:44;;;;;;;0.40;0.40;;;11.90;99.90;;;;;;4992543;28;20049;-68
2020/12/22 05:11:16;;;;;;;0.60;0.60;;;11.90;99.90;;;;;;5000453;28;20440;-69
2020/12/22 05:13:46;;;;;;;1.38;0.50;;;11.90;99.90;;;;;;5009633;28;20054;-69
2020/12/22 05:16:12;;;;;;;0.60;0.40;;;11.90;99.90;;;;;;5008264;28;20414;-67
2020/12/22 05:18:38;;;;;;;1.42;0.60;;;11.90;99.90;;;;;;5008076;28;20050;-68
2020/12/22 05:21:19;;;;;;;0.70;0.52;;;11.90;99.90;;;;;;5012061;28;20046;-68
2020/12/22 05:23:50;;;;;;;0.65;0.50;;;11.90;99.90;;;;;;5003381;28;20180;-68
2020/12/22 05:26:21;;;;;;;0.50;0.50;;;12.00;99.90;;;;;;5006439;28;20390;-68
2020/12/22 05:28:48;;;;;;;0.57;0.57;;;12.00;99.90;;;;;;5005947;28;20109;-67
2020/12/22 05:31:16;;;;;;;0.80;0.55;;;12.00;99.90;;;;;;5007173;28;20413;-68
2020/12/22 05:33:44;;;;;;;0.85;0.50;;;12.00;99.90;;;;;;5004454;28;20057;-68
2020/12/22 05:36:11;;;;;;;0.52;0.40;;;12.00;99.90;;;;;;5008740;28;20046;-68
2020/12/22 05:38:38;;;;;;;0.47;0.43;;;12.00;99.90;;;;;;5007337;28;20050;-68
2020/12/22 05:41:06;;;;;;;1.95;0.50;;;12.00;99.90;;;;;;5008659;28;20046;-68
2020/12/22 05:43:40;;;;;;;0.70;0.57;;;12.00;99.90;;;;;;5008725;28;20046;-68
2020/12/22 05:46:07;;;;;;;1.05;0.43;;;12.00;99.90;;;;;;5007120;28;20281;-69
2020/12/22 05:48:34;;;;;;;0.85;0.52;;;12.00;99.90;;;;;;5008726;28;20104;-68
2020/12/22 05:51:03;;;;;;;0.70;0.50;;;12.00;99.90;;;;;;5009124;28;20107;-69
2020/12/22 05:53:30;;;;;;;1.15;0.50;;;12.00;99.90;;;;;;5012453;28;20096;-68
2020/12/22 05:56:14;;;;;;;2.25;0.50;;;12.00;99.90;;;;;;5005982;28;20046;-68
2020/12/22 05:58:40;;;;;;;1.60;0.60;;;12.00;99.90;;;;;;5008887;28;20046;-68
2020/12/22 06:01:11;;;;;;;1.63;0.45;;;12.00;99.90;;;;;;5008177;28;20049;-68
2020/12/22 06:03:38;;;;;;;1.25;0.60;;;12.00;99.90;;;;;;5005045;28;20566;-68
2020/12/22 06:06:07;;;;;;;0.70;0.70;;;12.00;99.90;;;;;;5006656;28;20130;-68
2020/12/22 06:08:34;;;;;;;0.57;0.50;;;12.00;99.90;;;;;;5008442;28;20054;-68
2020/12/22 06:11:01;;;;;;;2.05;0.70;;;12.00;99.90;;;;;;5004000;28;20119;-68
2020/12/22 06:13:29;;;;;;;0.60;0.60;;;12.00;99.90;;;;;;5005788;28;20117;-68
2020/12/22 06:15:56;;;;;;;0.90;0.50;;;12.00;99.90;;;;;;5004093;28;20061;-68
2020/12/22 06:18:23;;;;;;;1.48;0.60;;;12.00;99.90;;;;;;5007723;28;20107;-69
2020/12/22 06:20:49;;;;;;;0.68;0.68;;;12.00;99.90;;;;;;5011442;28;20389;-69
2020/12/22 06:23:19;;;;;;;2.05;0.57;;;12.00;99.90;;;;;;5007719;28;20062;-67
2020/12/22 06:25:46;;;;;;;4.60;0.50;;;11.90;99.90;;;;;;5003409;28;20056;-68
2020/12/22 06:28:31;;;;;;;1.88;0.40;;;11.90;99.90;;;;;;5010731;28;20042;-67
2020/12/22 06:30:58;;;;;;;0.85;0.50;;;11.90;99.90;;;;;;5005705;28;20504;-68
2020/12/22 06:33:37;;;;;;;1.35;0.60;;;11.90;99.90;;;;;;5006363;28;20064;-69
2020/12/22 06:36:07;;;;;;;1.00;0.90;;;11.90;99.90;;;;;;5009557;28;20100;-68
2020/12/22 06:38:57;;;;;;;0.55;0.55;;;11.90;99.90;;;;;;5006986;28;20107;-68
2020/12/22 06:41:33;;;;;;;3.33;0.70;;;11.90;99.90;;;;;;5001378;28;20053;-67
2020/12/22 06:44:15;;;;;;;1.48;0.60;;;11.90;99.90;;;;;;5010758;28;20092;-68
2020/12/22 06:46:48;;;;;;;0.47;0.40;;;11.90;99.90;;;;;;5006751;28;20041;-68
2020/12/22 06:49:14;;;;;;;2.97;0.60;;;12.00;99.90;;;;;;5006059;28;20145;-69
2020/12/22 06:51:42;;;;;;;1.30;0.60;;;11.90;99.90;;;;;;5008161;28;20405;-68
2020/12/22 06:54:14;;;;;;;2.55;0.70;;;12.00;99.90;;;;;;5006510;28;20089;-67
2020/12/22 06:56:47;;;;;;;2.35;0.65;;;11.90;99.90;;;;;;5009756;28;20045;-68
2020/12/22 06:59:53;;;;;;;2.05;0.80;;;11.90;99.90;;;;;;4990088;28;20057;-68
2020/12/22 07:02:30;;;;;;;3.85;0.80;;;12.00;99.90;;;;;;4985445;28;20046;-68
2020/12/22 07:04:58;;;;;;;1.52;0.73;;;12.00;99.90;;;;;;4989818;28;20042;-68
2020/12/22 07:07:24;;;;;;;1.13;0.50;;;12.00;99.90;;;;;;4996944;28;20429;-68
2020/12/22 07:10:06;;;;;;;2.88;0.60;;;12.00;99.90;;;;;;4999100;28;20100;-68
2020/12/22 07:12:36;;;;;;;0.60;0.60;;;12.10;99.90;;;;;;4992718;28;20057;-68
2020/12/22 07:15:03;;;;;;;0.98;0.40;;;12.10;99.90;;;;;;5005297;28;20096;-68
2020/12/22 07:17:30;;;;;;;0.93;0.55;;;12.10;99.90;;;;;;5005411;28;20425;-67
2020/12/22 07:19:57;;;;;;;3.70;0.65;;;12.00;99.90;;;;;;5009635;28;20104;-67
2020/12/22 07:22:34;;;;;;;1.85;0.63;;;12.10;99.90;;;;;;5006393;28;20485;-68
2020/12/22 07:25:03;;;;;;;1.00;0.65;;;12.10;99.90;;;;;;5008062;28;20108;-68
2020/12/22 07:27:30;;;;;;;1.90;0.65;;;12.20;99.90;;;;;;5008910;28;20537;-68
2020/12/22 07:29:57;;;;;;;1.02;0.57;;;12.20;99.90;;;;;;5002501;28;20215;-68
2020/12/22 07:32:24;;;;;;;1.50;0.52;;;12.20;99.90;;;;;;5012490;28;20057;-68
2020/12/22 07:34:50;;;;;;;0.55;0.40;;;12.30;99.90;;;;;;5011873;28;20177;-68
2020/12/22 07:37:17;;;;;;;1.83;0.60;;;12.30;99.90;;;;;;5012932;28;20050;-68
2020/12/22 07:39:44;;;;;;;0.70;0.60;;;12.30;99.90;;;;;;4996701;28;20447;-68
2020/12/22 07:42:15;;;;;;;1.10;0.82;;;12.30;99.90;;;;;;5009505;28;20382;-67
2020/12/22 07:44:43;;;;;;;2.30;0.70;;;12.40;99.90;;;;;;5013602;28;20069;-68
2020/12/22 07:47:11;;;;;;;2.25;0.50;;;12.40;99.90;;;;;;5006108;28;20045;-68
2020/12/22 07:49:39;;;;;;;2.30;0.68;;;12.40;99.90;;;;;;5010733;28;20541;-67
2020/12/22 07:52:14;;;;;;;0.65;0.60;;;12.40;99.90;;;;;;5012856;28;20049;-68
2020/12/22 07:55:09;;;;;;;1.02;0.80;;;12.40;99.90;;;;;;5005860;28;20100;-68
2020/12/22 07:57:39;;;;;;;0.88;0.65;;;12.40;99.90;;;;;;5004700;28;20043;-68
2020/12/22 08:00:09;;;;;;;0.82;0.70;;;12.40;99.90;;;;;;5010025;28;20394;-68
2020/12/22 08:02:35;;;;;;;0.85;0.60;;;12.40;99.90;;;;;;4993567;28;20041;-68
2020/12/22 08:05:12;;;;;;;3.10;0.50;;;12.40;99.90;;;;;;5005477;28;20042;-67
2020/12/22 08:07:42;;;;;;;1.30;0.60;;;12.40;99.90;;;;;;4992476;28;20046;-68
2020/12/22 08:10:09;;;;;;;1.33;0.80;;;12.40;99.90;;;;;;5009615;28;20053;-67
2020/12/22 08:12:36;;;;;;;0.43;0.40;;;12.50;99.90;;;;;;5012970;28;20355;-67
2020/12/22 08:15:03;;;;;;;1.48;0.70;;;12.50;99.90;;;;;;5010372;28;20564;-68
2020/12/22 08:17:33;;;;;;;1.55;0.80;;;12.50;99.90;;;;;;5011836;28;20111;-68
2020/12/22 08:20:01;;;;;;;0.80;0.55;;;12.50;99.90;;;;;;5008001;28;20049;-68
2020/12/22 08:22:29;;;;;;;2.13;0.60;;;12.50;99.90;;;;;;5010507;28;20049;-69
2020/12/22 08:24:55;;;;;;;2.15;0.60;;;12.50;99.90;;;;;;5013922;28;20045;-69
2020/12/22 08:27:22;;;;;;;1.63;0.70;;;12.50;99.90;;;;;;5008602;28;20049;-69
2020/12/22 08:29:48;;;;;;;0.98;0.73;;;12.50;99.90;;;;;;5000924;28;20885;-69
2020/12/22 08:32:23;;;;;;;1.30;0.70;;;12.60;99.90;;;;;;5010002;28;20094;-69
2020/12/22 08:34:52;;;;;;;0.60;0.50;;;12.50;99.90;;;;;;5009040;28;20042;-69
2020/12/22 08:37:28;;;;;;;3.13;0.63;;;12.60;99.90;;;;;;5012953;28;20058;-68
2020/12/22 08:39:54;;;;;;;1.25;0.50;;;12.60;99.90;;;;;;5010907;28;20061;-68
2020/12/22 08:42:21;;;;;;;1.05;0.50;;;12.60;99.90;;;;;;5007456;28;20053;-68
2020/12/22 08:44:51;;;;;;;0.60;0.60;;;12.60;99.90;;;;;;5011157;28;20200;-69
2020/12/22 08:47:18;;;;;;;;;;;12.60;99.90;;;;;;5009109;28;20050;-68
2020/12/22 08:49:46;;;;;;;2.25;0.63;;;12.70;99.90;;;;;;5011273;28;19925;-69
2020/12/22 08:52:19;;;;;;;2.05;0.60;;;12.70;99.90;;;;;;5008560;28;20086;-68
2020/12/22 08:54:47;;;;;;;2.13;0.70;;;12.70;99.90;;;;;;5007170;28;20064;-68
2020/12/22 08:57:15;;;;;;;1.75;0.40;;;12.70;99.90;;;;;;5007496;28;20125;-69
2020/12/22 08:59:42;;;;;;;0.82;0.63;;;12.70;99.90;;;;;;5004524;28;20121;-68
2020/12/22 09:02:31;;;;;;;2.20;0.65;;;12.80;99.90;;;;;;5005926;28;20054;-69
2020/12/22 09:04:58;;;;;;;1.03;0.60;;;12.80;99.90;;;;;;4998795;28;20490;-68
2020/12/22 09:07:25;;;;;;;0.98;0.68;;;12.80;99.90;;;;;;5007831;28;20096;-69
2020/12/22 09:10:03;;;;;;;0.60;0.60;;;12.80;99.90;;;;;;5004744;28;20123;-69
2020/12/22 09:12:30;;;;;;;1.17;0.55;;;12.70;99.90;;;;;;5008142;28;20045;-69
2020/12/22 09:14:58;;;;;;;1.17;0.65;;;12.80;99.90;;;;;;5007951;28;20053;-69
2020/12/22 09:17:36;;;;;;;1.30;0.80;;;12.80;99.90;;;;;;5011477;28;20481;-69
2020/12/22 09:20:04;;;;;;;1.35;0.63;;;12.80;99.90;;;;;;5008392;28;20096;-68
2020/12/22 09:22:32;;;;;;;1.00;0.75;;;12.80;99.90;;;;;;5004716;28;20050;-68
2020/12/22 09:25:07;;;;;;;1.20;0.60;;;12.80;99.90;;;;;;5007679;28;20100;-68
2020/12/22 09:27:44;;;;;;;2.22;0.60;;;12.80;99.90;;;;;;5007208;28;20057;-67
2020/12/22 09:30:13;;;;;;;2.20;0.70;;;12.80;99.90;;;;;;5006331;28;20092;-68
2020/12/22 09:32:41;;;;;;;1.05;0.52;;;12.80;99.90;;;;;;5011251;28;20128;-69
2020/12/22 09:35:07;;;;;;;7.97;0.80;;;12.80;99.90;;;;;;5006263;28;20053;-68
2020/12/22 09:37:34;;;;;;;0.90;0.60;;;12.80;99.90;;;;;;4990523;28;20137;-68
2020/12/22 09:40:01;;;;;;;0.85;0.63;;;12.80;99.90;;;;;;5005375;28;20447;-67
2020/12/22 09:42:28;;;;;;;1.15;0.80;;;12.80;99.90;;;;;;5001161;28;20054;-68
2020/12/22 09:44:54;;;;;;;1.27;0.80;;;12.80;99.90;;;;;;4988846;28;20452;-68
2020/12/22 09:47:21;;;;;;;0.77;0.60;;;12.80;99.90;;;;;;5004671;28;20127;-69
2020/12/22 09:49:48;;;;;;;0.85;0.70;;;12.90;99.90;;;;;;5003259;28;20061;-71
2020/12/22 09:52:14;;;;;;;1.05;0.70;;;12.90;99.90;;;;;;5008478;28;20064;-69
2020/12/22 09:54:40;;;;;;;1.77;0.77;;;12.90;99.90;;;;;;5002902;28;20081;-69
2020/12/22 09:57:08;;;;;;;2.85;0.70;;;12.90;99.90;;;;;;4998453;28;20136;-71
2020/12/22 09:59:34;;;;;;;1.50;0.70;;;13.00;99.90;;;;;;4987990;28;20057;-71
2020/12/22 10:02:01;;;;;;;4.97;0.60;;;13.00;99.90;;;;;;4989502;28;20046;-70
2020/12/22 10:04:27;;;;;;;1.48;0.80;;;13.00;99.90;;;;;;4989350;28;20065;-72
2020/12/22 10:06:54;;;;;;;2.38;0.80;;;13.00;99.90;;;;;;4984731;28;20461;-72
2020/12/22 10:09:21;;;;;;;0.73;0.68;;;13.00;99.90;;;;;;4987256;28;20046;-71
2020/12/22 10:11:48;;;;;;;1.67;0.90;;;13.00;99.90;;;;;;4989173;28;20061;-71
2020/12/22 10:14:15;;;;;;;1.42;0.73;;;13.10;99.90;;;;;;4987002;28;20057;-71
2020/12/22 10:16:41;;;;;;;1.70;0.95;;;13.00;99.90;;;;;;4979415;28;20452;-71
2020/12/22 10:19:10;;;;;;;2.45;0.73;;;13.10;99.90;;;;;;4990774;28;20489;-71
2020/12/22 10:21:36;;;;;;;1.17;0.80;;;13.10;99.90;;;;;;4989273;28;20429;-73
2020/12/22 10:24:06;;;;;;;1.20;0.80;;;13.10;99.90;;;;;;4987127;28;20054;-71
2020/12/22 10:26:33;;;;;;;1.90;0.77;;;13.10;99.90;;;;;;4988045;28;20278;-71
2020/12/22 10:28:59;;;;;;;1.50;0.57;;;13.10;99.90;;;;;;4987161;28;20846;-72
2020/12/22 10:31:27;;;;;;;1.48;0.80;;;13.10;99.90;;;;;;4985916;28;20116;-70
2020/12/22 10:33:56;;;;;;;1.13;0.80;;;13.00;99.90;;;;;;4992173;28;20111;-71
2020/12/22 10:36:24;;;;;;;2.72;0.82;;;13.00;99.90;;;;;;5001145;28;20096;-69
2020/12/22 10:38:52;;;;;;;3.60;0.77;;;13.10;99.90;;;;;;5002262;28;20096;-71
2020/12/22 10:41:19;;;;;;;1.00;0.65;;;13.10;99.90;;;;;;4986927;28;20046;-71
2020/12/22 10:43:50;;;;;;;2.05;0.93;;;13.10;99.90;;;;;;5007126;28;20042;-70
2020/12/22 10:46:16;;;;;;;;;;;13.20;99.90;;;;;;4989578;28;20049;-72
2020/12/22 10:48:44;;;;;;;2.13;0.60;;;13.20;99.90;;;;;;5006461;28;19933;-71
2020/12/22 10:51:12;;;;;;;1.48;0.90;;;13.20;99.90;;;;;;5006987;28;20045;-71
2020/12/22 10:53:38;;;;;;;0.70;0.70;;;13.20;99.90;;;;;;5005055;28;20844;-71
2020/12/22 10:56:14;;;;;;;2.25;0.90;;;13.30;99.90;;;;;;4998523;28;20058;-72
2020/12/22 10:58:41;;;;;;;1.42;0.98;;;13.20;99.90;;;;;;5004430;28;20073;-71
2020/12/22 11:01:12;;;;;;;1.23;0.70;;;13.30;99.90;;;;;;5006991;28;20753;-69
2020/12/22 11:03:39;;;;;;;0.98;0.85;;;13.40;99.90;;;;;;5007492;28;20046;-71
2020/12/22 11:08:50;;;;;;;0.95;0.70;;;13.40;99.90;;;;;;5005263;28;20058;-72
2020/12/22 11:11:16;;;;;;;1.75;0.80;;;13.40;99.90;;;;;;5005161;28;20057;-72
2020/12/22 11:13:43;;;;;;;0.95;0.65;;;13.40;99.90;;;;;;4989129;28;20053;-73
2020/12/22 11:16:10;;;;;;;0.82;0.77;;;13.40;99.90;;;;;;5006631;28;20050;-71
2020/12/22 11:18:39;;;;;;;2.20;0.95;;;13.40;99.90;;;;;;5009762;28;20066;-70
2020/12/22 11:21:12;;;;;;;3.08;0.95;;;13.40;99.90;;;;;;5005014;28;20046;-73
2020/12/22 11:23:47;;;;;;;1.10;0.85;;;13.50;99.90;;;;;;5007510;28;20135;-72
2020/12/22 11:26:15;;;;;;;0.75;0.73;;;13.50;99.90;;;;;;4998984;28;20057;-71
2020/12/22 11:28:41;;;;;;;1.35;0.70;;;13.60;99.90;;;;;;5004774;28;20093;-71
2020/12/22 11:31:09;;;;;;;0.77;0.77;;;13.60;99.90;;;;;;4988021;28;20054;-73
2020/12/22 11:33:35;;;;;;;1.55;0.80;;;13.50;99.90;;;;;;5007032;28;20057;-73
2020/12/22 11:36:01;;;;;;;1.13;0.73;;;13.60;99.90;;;;;;5006140;28;20080;-71
2020/12/22 11:38:28;;;;;;;1.73;0.95;;;13.60;99.90;;;;;;4991873;28;20057;-72
2020/12/22 11:40:54;;;;;;;1.77;0.80;;;13.60;99.90;;;;;;5004926;28;20065;-70
2020/12/22 11:43:21;;;;;;;1.60;0.80;;;13.60;99.90;;;;;;5003836;28;20120;-73
2020/12/22 11:45:47;;;;;;;1.75;0.80;;;13.60;99.90;;;;;;5004643;28;20050;-71
2020/12/22 11:48:14;;;;;;;1.60;0.98;;;13.70;99.90;;;;;;4990923;28;20057;-71
2020/12/22 11:50:40;;;;;;;3.55;0.77;;;13.70;99.90;;;;;;5003861;28;20096;-70
2020/12/22 11:53:06;;;;;;;3.00;0.80;;;13.80;99.90;;;;;;5002623;28;20058;-72
2020/12/22 11:55:33;;;;;;;4.15;0.90;;;13.90;99.90;;;;;;5001822;28;20054;-71
2020/12/22 11:57:59;;;;;;;2.72;0.90;;;14.00;99.90;;;;;;5008227;28;20536;-71
2020/12/22 12:00:25;;;;;;;1.55;0.65;;;14.00;99.90;;;;;;5009523;28;20054;-70
2020/12/22 12:02:52;;;;;;;0.77;0.60;;;14.10;99.90;;;;;;5005477;28;20478;-71
2020/12/22 12:05:18;;;;;;;2.08;0.80;;;14.20;99.90;;;;;;5001767;28;20817;-70
2020/12/22 12:07:44;;;;;;;1.30;0.75;;;14.20;99.90;;;;;;5006776;28;20050;-71
2020/12/22 12:10:11;;;;;;;1.27;0.52;;;14.20;99.90;;;;;;5005189;28;20441;-78
2020/12/22 12:12:38;;;;;;;30.15;1.65;;;14.20;99.90;;;;;;5002893;28;20112;-70
2020/12/22 12:15:04;;;;;;;0.90;0.60;;;14.30;99.90;;;;;;4989300;28;20104;-71
2020/12/22 12:17:31;;;;;;;1.67;0.70;;;14.60;99.90;;;;;;5006683;28;20061;-72
2020/12/22 12:19:57;;;;;;;2.90;0.75;;;14.50;99.90;;;;;;5000527;28;20108;-73
2020/12/22 12:22:24;;;;;;;1.35;0.63;;;14.50;99.90;;;;;;5007337;28;20046;-73
2020/12/22 12:24:50;;;;;;;1.92;0.70;;;14.50;99.90;;;;;;5005296;28;20045;-74
2020/12/22 12:27:16;;;;;;;1.40;0.50;;;14.50;99.90;;;;;;5002424;28;20123;-73
2020/12/22 12:29:43;;;;;;;1.15;0.60;;;14.50;99.90;;;;;;4989519;28;20124;-75
2020/12/22 12:32:09;;;;;;;2.15;0.60;;;14.50;99.90;;;;;;5004033;28;20058;-76
2020/12/22 12:34:35;;;;;;;1.15;0.70;;;14.50;99.90;;;;;;4998282;28;20054;-75
2020/12/22 12:37:02;;;;;;;1.30;0.70;;;14.40;99.90;;;;;;4988575;28;20057;-76
2020/12/22 12:39:28;;;;;;;3.75;1.02;;;14.50;99.90;;;;;;4991323;28;20288;-75
2020/12/22 12:41:55;;;;;;;2.15;0.60;;;14.50;99.90;;;;;;4983288;28;20050;-75
2020/12/22 12:44:24;;;;;;;0.85;0.50;;;14.50;99.90;;;;;;5004200;28;20050;-74
2020/12/22 12:46:55;;;;;;;1.65;0.70;;;14.50;99.90;;;;;;4981018;28;20456;-77
2020/12/22 12:49:22;;;;;;;1.10;0.65;;;14.50;99.90;;;;;;4989173;28;20052;-74
2020/12/22 12:51:49;;;;;;;2.17;0.77;;;14.60;99.90;;;;;;4999217;28;20054;-76
2020/12/22 12:54:15;;;;;;;5.38;0.55;;;14.50;99.90;;;;;;5005262;28;20053;-75
2020/12/22 12:56:41;;;;;;;2.53;0.80;;;14.60;99.90;;;;;;5005597;28;20127;-74